Time;durP1;ratioP1;P1;durP2;ratioP2;P2;SDS_P1;SDS_P2;PMS_P1;PMS_P2;Temp;Humidity;BMP_temperature;BMP_pressure;BME280_temperature;BME280_humidity;BME280_pressure;Samples;Min_cycle;Max_cycle;Signal;HPM_P1;HPM_P2
2022/01/16 00:01:15;;;;;;;14.97;8.67;;;2.20;67.70;;;;;;5002997;28;20030;-81
2022/01/16 00:06:25;;;;;;;12.23;7.63;;;2.20;67.40;;;;;;4988578;28;20044;-81
2022/01/16 00:08:51;;;;;;;17.40;8.50;;;2.20;67.50;;;;;;4987431;28;20807;-81
2022/01/16 00:11:16;;;;;;;13.90;8.13;;;2.20;67.80;;;;;;4975885;28;20030;-81
2022/01/16 00:13:42;;;;;;;9.73;5.80;;;2.30;67.90;;;;;;4972802;28;20072;-81
2022/01/16 00:16:12;;;;;;;9.90;5.70;;;2.20;67.80;;;;;;4987357;28;20409;-81
2022/01/16 00:18:49;;;;;;;10.50;5.57;;;2.10;67.80;;;;;;4971741;28;20046;-81
2022/01/16 00:21:31;;;;;;;13.10;5.03;;;2.20;67.80;;;;;;4985017;28;20464;-82
2022/01/16 00:23:58;;;;;;;9.13;5.22;;;2.20;67.90;;;;;;4992682;28;20381;-81
2022/01/16 00:26:24;;;;;;;8.37;5.03;;;2.20;67.70;;;;;;4973711;28;20077;-81
2022/01/16 00:28:51;;;;;;;10.67;4.97;;;2.10;67.70;;;;;;4991970;28;20463;-81
2022/01/16 00:31:18;;;;;;;8.30;5.03;;;2.10;67.90;;;;;;4989716;28;20030;-81
2022/01/16 00:33:45;;;;;;;9.10;5.37;;;2.10;67.80;;;;;;4988528;28;20026;-81
2022/01/16 00:36:12;;;;;;;46.73;5.70;;;2.10;67.80;;;;;;4985756;28;20117;-81
2022/01/16 00:38:40;;;;;;;7.10;4.20;;;2.10;67.60;;;;;;4987084;28;20023;-81
2022/01/16 00:41:06;;;;;;;7.03;4.53;;;2.20;68.00;;;;;;4965883;28;20469;-81
2022/01/16 00:43:31;;;;;;;6.83;3.90;;;2.20;68.00;;;;;;4990562;28;20069;-81
2022/01/16 00:45:57;;;;;;;8.33;4.27;;;2.20;67.90;;;;;;4986924;28;20034;-81
2022/01/16 00:48:23;;;;;;;11.90;4.50;;;2.10;67.90;;;;;;4983678;28;20062;-81
2022/01/16 00:50:49;;;;;;;7.10;3.97;;;2.10;68.00;;;;;;4985602;28;20089;-81
2022/01/16 00:53:14;;;;;;;6.97;4.03;;;2.10;68.00;;;;;;4986127;28;20050;-81
2022/01/16 00:55:42;;;;;;;8.07;4.20;;;2.10;68.00;;;;;;4988208;28;20022;-81
2022/01/16 00:58:08;;;;;;;6.77;3.73;;;2.20;68.10;;;;;;4986291;28;20030;-81
2022/01/16 01:00:34;;;;;;;9.07;4.23;;;2.10;68.20;;;;;;4987301;28;20489;-81
2022/01/16 01:03:00;;;;;;;9.93;4.57;;;2.20;68.70;;;;;;4982806;28;20042;-81
2022/01/16 01:05:26;;;;;;;6.53;4.10;;;2.20;68.10;;;;;;4983201;28;20045;-81
2022/01/16 01:07:53;;;;;;;6.07;3.50;;;2.10;68.10;;;;;;4983373;28;20037;-81
2022/01/16 01:10:23;;;;;;;8.23;4.40;;;2.10;68.20;;;;;;4986106;28;20081;-81
2022/01/16 01:12:55;;;;;;;7.53;3.20;;;2.10;68.00;;;;;;4984191;28;20041;-81
2022/01/16 01:15:30;;;;;;;7.00;3.43;;;2.10;68.00;;;;;;4991543;28;20087;-81
2022/01/16 01:17:56;;;;;;;5.50;3.23;;;2.10;67.80;;;;;;5004030;28;20285;-81
2022/01/16 01:20:25;;;;;;;6.10;3.53;;;2.10;67.80;;;;;;4985504;28;20019;-81
2022/01/16 01:22:52;;;;;;;8.47;4.40;;;2.00;67.80;;;;;;4982689;28;20037;-81
2022/01/16 01:25:19;;;;;;;7.07;4.33;;;2.00;67.70;;;;;;4986828;28;20030;-81
2022/01/16 01:27:46;;;;;;;6.53;4.33;;;2.00;67.70;;;;;;4985756;28;20302;-81
2022/01/16 01:30:17;;;;;;;9.40;4.63;;;2.00;68.00;;;;;;4990170;28;20027;-82
2022/01/16 01:32:46;;;;;;;6.77;3.93;;;2.00;67.80;;;;;;4991274;28;20037;-81
2022/01/16 01:35:14;;;;;;;7.37;3.83;;;2.00;67.80;;;;;;5001430;28;20675;-81
2022/01/16 01:37:40;;;;;;;8.93;4.27;;;2.00;67.80;;;;;;4987936;28;20033;-81
2022/01/16 01:40:09;;;;;;;10.47;5.00;;;2.00;67.80;;;;;;4989776;28;20040;-81
2022/01/16 01:42:43;;;;;;;7.73;3.93;;;2.00;67.80;;;;;;4986932;28;20029;-81
2022/01/16 01:51:04;;;;;;;6.77;3.00;;;2.00;67.30;;;;;;4973128;28;20042;-81
2022/01/16 01:53:30;;;;;;;8.37;4.10;;;1.90;67.30;;;;;;5003602;28;20022;-81
2022/01/16 01:55:56;;;;;;;5.97;3.27;;;1.90;67.60;;;;;;4968944;28;20038;-81
2022/01/16 01:58:21;;;;;;;7.23;3.97;;;1.90;67.50;;;;;;4975515;28;20463;-81
2022/01/16 02:00:47;;;;;;;5.10;3.10;;;1.90;67.60;;;;;;5001481;28;20076;-81
2022/01/16 02:03:18;;;;;;;5.37;2.97;;;1.90;67.50;;;;;;5005938;28;20369;-81
2022/01/16 02:05:45;;;;;;;6.80;4.33;;;1.90;67.70;;;;;;4986402;28;20455;-81
2022/01/16 02:08:11;;;;;;;9.73;5.07;;;1.90;67.60;;;;;;4990549;28;20022;-81
2022/01/16 02:10:39;;;;;;;11.60;5.37;;;1.90;67.80;;;;;;4997456;28;20029;-81
2022/01/16 02:13:08;;;;;;;7.53;4.37;;;1.90;67.90;;;;;;5003579;28;20092;-81
2022/01/16 02:31:45;;;;;;;2.87;1.73;;;1.90;67.80;;;;;;5005001;28;20022;-81
2022/01/16 02:34:32;;;;;;;4.13;2.83;;;1.90;67.90;;;;;;4989376;28;20026;-82
2022/01/16 02:37:01;;;;;;;4.17;2.20;;;1.90;67.70;;;;;;5006852;28;20335;-81
2022/01/16 02:39:29;;;;;;;7.57;3.40;;;1.80;67.90;;;;;;4988610;28;20080;-82
2022/01/16 02:41:57;;;;;;;13.83;5.60;;;1.80;68.20;;;;;;4984305;28;20022;-81
2022/01/16 02:44:33;;;;;;;11.43;5.53;;;1.70;68.20;;;;;;5010218;28;20428;-81
2022/01/16 02:46:59;;;;;;;7.67;4.57;;;1.70;68.30;;;;;;4989551;28;20068;-81
2022/01/16 02:49:31;;;;;;;8.30;5.30;;;1.60;68.40;;;;;;4988310;28;20512;-81
2022/01/16 02:52:04;;;;;;;8.10;4.17;;;1.70;68.50;;;;;;4989408;28;20083;-82
2022/01/16 02:54:35;;;;;;;7.23;3.50;;;1.80;68.70;;;;;;4991354;28;20114;-82
2022/01/16 02:57:02;;;;;;;9.83;4.70;;;1.80;68.30;;;;;;4985019;28;20022;-81
2022/01/16 02:59:27;;;;;;;8.07;4.60;;;1.80;68.10;;;;;;5004563;28;20105;-81
2022/01/16 03:01:53;;;;;;;7.00;4.47;;;1.80;68.30;;;;;;4984071;28;20540;-81
2022/01/16 03:04:19;;;;;;;9.00;4.90;;;1.80;68.20;;;;;;4991513;28;20027;-81
2022/01/16 03:06:45;;;;;;;9.17;4.83;;;1.80;68.10;;;;;;4992092;28;20018;-81
2022/01/16 03:09:11;;;;;;;6.20;3.47;;;1.70;68.00;;;;;;5001497;28;20495;-81
2022/01/16 03:11:46;;;;;;;5.20;3.20;;;1.70;68.10;;;;;;5003273;28;20504;-81
2022/01/16 03:14:14;;;;;;;5.27;3.10;;;1.80;68.00;;;;;;4988384;28;20108;-81
2022/01/16 03:16:45;;;;;;;7.73;4.10;;;1.70;68.00;;;;;;4990335;28;20072;-81
2022/01/16 03:22:03;;;;;;;7.30;4.73;;;1.50;68.10;;;;;;5006459;28;20037;-81
2022/01/16 03:24:36;;;;;;;6.93;3.77;;;1.60;68.50;;;;;;5003430;28;20038;-81
2022/01/16 03:27:05;;;;;;;5.43;3.67;;;1.60;68.40;;;;;;4983493;28;20030;-82
2022/01/16 03:29:31;;;;;;;7.20;4.33;;;1.60;68.20;;;;;;4989299;28;20033;-82
2022/01/16 03:31:59;;;;;;;9.03;4.37;;;1.60;68.30;;;;;;4985659;28;20214;-81
2022/01/16 03:34:25;;;;;;;6.07;4.13;;;1.60;68.50;;;;;;4990704;28;20101;-81
2022/01/16 03:36:51;;;;;;;8.97;4.43;;;1.70;68.80;;;;;;5008268;28;20497;-81
2022/01/16 03:39:17;;;;;;;12.13;7.00;;;1.70;68.30;;;;;;4987568;28;20480;-81
2022/01/16 03:41:43;;;;;;;6.03;3.53;;;1.60;68.30;;;;;;4987939;28;20025;-82
2022/01/16 03:44:09;;;;;;;5.07;2.83;;;1.60;68.30;;;;;;4992479;28;20022;-81
2022/01/16 03:46:38;;;;;;;3.57;2.30;;;1.60;68.40;;;;;;4985394;28;21149;-81
2022/01/16 03:49:07;;;;;;;3.87;2.30;;;1.60;68.20;;;;;;5004162;28;20026;-81
2022/01/16 03:51:36;;;;;;;5.00;3.00;;;1.50;68.10;;;;;;4984239;28;20064;-81
2022/01/16 03:54:03;;;;;;;6.17;3.23;;;1.50;68.20;;;;;;4987183;28;20488;-81
2022/01/16 03:56:29;;;;;;;7.40;3.90;;;1.50;68.20;;;;;;4994389;28;20494;-81
2022/01/16 03:58:55;;;;;;;4.60;2.80;;;1.50;68.10;;;;;;4988454;28;20476;-81
2022/01/16 04:01:21;;;;;;;5.37;2.20;;;1.50;68.20;;;;;;4986879;28;20049;-81
2022/01/16 04:03:47;;;;;;;3.10;2.10;;;1.50;68.30;;;;;;5001200;28;20184;-81
2022/01/16 04:06:13;;;;;;;5.57;2.63;;;1.50;68.30;;;;;;4998824;28;20508;-82
2022/01/16 04:08:39;;;;;;;3.57;2.10;;;1.50;68.50;;;;;;4988852;28;21160;-81
2022/01/16 04:11:04;;;;;;;4.27;2.03;;;1.50;68.50;;;;;;4985260;28;20029;-81
2022/01/16 04:13:32;;;;;;;3.80;2.30;;;1.50;68.30;;;;;;4989309;28;20034;-81
2022/01/16 04:15:58;;;;;;;8.03;2.83;;;1.50;68.20;;;;;;4980366;28;20042;-81
2022/01/16 04:18:23;;;;;;;4.90;2.60;;;1.50;68.10;;;;;;4983654;28;20120;-81
2022/01/16 04:20:49;;;;;;;4.83;2.43;;;1.50;68.20;;;;;;4984285;28;20022;-81
2022/01/16 04:23:15;;;;;;;4.20;2.73;;;1.50;68.10;;;;;;5006843;28;20117;-81
2022/01/16 04:25:41;;;;;;;10.23;2.33;;;1.50;68.00;;;;;;4989609;28;20030;-81
2022/01/16 04:28:06;;;;;;;5.53;2.97;;;1.50;68.00;;;;;;4992588;28;20088;-81
2022/01/16 04:30:33;;;;;;;4.07;1.77;;;1.40;67.90;;;;;;4989817;28;20374;-81
2022/01/16 04:32:58;;;;;;;4.93;2.20;;;1.40;68.20;;;;;;4986407;28;20037;-81
2022/01/16 04:35:24;;;;;;;4.13;3.00;;;1.40;68.30;;;;;;5004338;28;20034;-81
2022/01/16 04:37:50;;;;;;;4.67;2.70;;;1.40;68.30;;;;;;5006550;28;20108;-81
2022/01/16 04:40:16;;;;;;;7.40;3.33;;;1.30;68.00;;;;;;4985977;28;20034;-81
2022/01/16 04:45:28;;;;;;;7.10;3.90;;;1.40;68.30;;;;;;5003392;28;20052;-82
2022/01/16 04:47:55;;;;;;;8.20;3.87;;;1.30;68.10;;;;;;4986697;28;20476;-81
2022/01/16 04:50:22;;;;;;;8.57;3.50;;;1.30;68.90;;;;;;4992822;28;20389;-81
2022/01/16 04:52:49;;;;;;;7.77;4.03;;;1.30;68.30;;;;;;4989395;28;20030;-80
2022/01/16 04:55:15;;;;;;;7.93;4.73;;;1.30;68.30;;;;;;5008090;28;20488;-80
2022/01/16 04:57:42;;;;;;;8.47;5.20;;;1.30;68.20;;;;;;4996146;28;20025;-80
2022/01/16 05:00:14;;;;;;;6.63;3.50;;;1.30;68.10;;;;;;4990500;28;20022;-81
2022/01/16 05:02:41;;;;;;;5.47;3.30;;;1.20;68.10;;;;;;4986021;28;20033;-81
2022/01/16 05:05:07;;;;;;;5.23;3.30;;;1.20;68.30;;;;;;4990755;28;20036;-81
2022/01/16 05:07:32;;;;;;;7.67;2.47;;;1.20;68.50;;;;;;4990576;28;20073;-81
2022/01/16 05:09:58;;;;;;;6.77;3.93;;;1.10;68.50;;;;;;4992839;28;20559;-81
2022/01/16 05:12:34;;;;;;;6.37;3.63;;;1.20;68.30;;;;;;5005706;28;20045;-81
2022/01/16 05:17:45;;;;;;;4.57;3.17;;;1.20;68.30;;;;;;5009190;28;20315;-81
2022/01/16 05:20:11;;;;;;;5.73;3.47;;;1.20;68.10;;;;;;4993198;28;20420;-81
2022/01/16 05:22:37;;;;;;;7.20;3.10;;;1.10;68.20;;;;;;4986571;28;20022;-81
2022/01/16 05:25:08;;;;;;;5.20;2.93;;;1.10;68.30;;;;;;4991539;28;20038;-81
2022/01/16 05:27:34;;;;;;;4.70;2.67;;;1.10;68.30;;;;;;4974798;28;20187;-83
2022/01/16 05:30:00;;;;;;;4.27;2.87;;;1.20;68.20;;;;;;4985731;28;20288;-81
2022/01/16 05:32:26;;;;;;;5.07;2.60;;;1.20;68.20;;;;;;4989050;28;20038;-81
2022/01/16 05:34:51;;;;;;;4.63;2.70;;;1.10;67.90;;;;;;4994269;28;20047;-81
2022/01/16 05:37:17;;;;;;;7.37;3.27;;;1.10;68.00;;;;;;4995361;28;20057;-80
2022/01/16 05:39:45;;;;;;;5.63;2.70;;;1.10;68.10;;;;;;5012305;28;20018;-81
2022/01/16 05:42:12;;;;;;;4.67;2.97;;;1.10;67.90;;;;;;5011686;28;20115;-81
2022/01/16 05:44:38;;;;;;;10.70;5.77;;;1.10;68.00;;;;;;4988148;28;20710;-81
2022/01/16 05:47:05;;;;;;;10.10;5.70;;;1.10;68.20;;;;;;4991575;28;20122;-81
2022/01/16 05:49:30;;;;;;;7.13;4.40;;;1.10;68.50;;;;;;4993789;28;20033;-81
2022/01/16 05:51:56;;;;;;;6.73;4.13;;;1.10;68.40;;;;;;4989171;28;22060;-81
2022/01/16 05:54:22;;;;;;;6.43;3.50;;;1.20;68.40;;;;;;5010300;28;20026;-81
2022/01/16 05:56:48;;;;;;;6.17;3.70;;;1.20;68.40;;;;;;4992622;28;20113;-80
2022/01/16 05:59:14;;;;;;;7.77;3.93;;;1.10;68.10;;;;;;4994099;28;20102;-81
2022/01/16 06:01:39;;;;;;;7.67;4.10;;;1.10;68.10;;;;;;4985139;28;20029;-81
2022/01/16 06:04:05;;;;;;;14.77;11.63;;;1.10;68.20;;;;;;4993288;28;20037;-81
2022/01/16 06:06:31;;;;;;;57.30;7.97;;;1.10;68.10;;;;;;4996388;28;20131;-81
2022/01/16 06:08:56;;;;;;;9.23;5.97;;;1.10;67.90;;;;;;4990290;28;20052;-82
2022/01/16 06:11:22;;;;;;;18.37;5.40;;;1.00;68.30;;;;;;4991238;28;20030;-81
2022/01/16 06:13:48;;;;;;;8.13;5.17;;;1.00;68.40;;;;;;4994028;28;20026;-81
2022/01/16 06:16:14;;;;;;;10.60;6.03;;;1.00;68.60;;;;;;4993838;28;20073;-81
2022/01/16 06:18:39;;;;;;;13.33;7.93;;;1.00;68.50;;;;;;5001582;28;20028;-81
2022/01/16 06:21:05;;;;;;;14.83;8.67;;;1.00;68.30;;;;;;5006125;28;20053;-81
2022/01/16 06:23:31;;;;;;;15.43;8.77;;;0.90;68.30;;;;;;5010241;28;20096;-81
2022/01/16 06:25:57;;;;;;;15.43;8.40;;;0.90;68.30;;;;;;5003317;28;20109;-81
2022/01/16 06:28:25;;;;;;;16.57;8.03;;;0.90;68.80;;;;;;4991657;28;20117;-81
2022/01/16 06:30:51;;;;;;;18.60;10.53;;;1.00;68.70;;;;;;4991746;28;20026;-82
2022/01/16 06:33:17;;;;;;;38.27;21.10;;;1.10;68.50;;;;;;4986895;28;20331;-81
2022/01/16 06:35:42;;;;;;;43.30;24.23;;;1.00;68.20;;;;;;4981203;28;20368;-81
2022/01/16 06:38:09;;;;;;;30.80;16.33;;;1.00;68.20;;;;;;4989810;28;20374;-81
2022/01/16 06:40:34;;;;;;;22.60;12.10;;;1.10;68.30;;;;;;4995214;28;20477;-81
2022/01/16 06:43:00;;;;;;;13.93;8.67;;;1.10;68.10;;;;;;4994483;28;20033;-81
2022/01/16 06:45:26;;;;;;;17.03;9.83;;;1.00;68.00;;;;;;5008685;28;20030;-81
2022/01/16 06:47:52;;;;;;;15.53;10.07;;;1.00;68.20;;;;;;4998143;28;20091;-81
2022/01/16 06:50:18;;;;;;;32.57;18.37;;;0.90;68.30;;;;;;4992568;28;20030;-81
2022/01/16 06:52:44;;;;;;;31.33;18.50;;;0.90;68.10;;;;;;4990700;28;20075;-81
2022/01/16 06:55:10;;;;;;;45.07;24.10;;;0.90;68.40;;;;;;4995725;28;20061;-81
2022/01/16 06:57:36;;;;;;;25.67;15.27;;;0.90;68.40;;;;;;5013279;28;20408;-81
2022/01/16 07:00:05;;;;;;;26.57;14.63;;;0.90;68.20;;;;;;4985988;28;20365;-81
2022/01/16 07:02:31;;;;;;;19.50;13.27;;;0.90;68.10;;;;;;4982275;28;20029;-81
2022/01/16 07:04:57;;;;;;;31.37;17.67;;;1.00;68.20;;;;;;4982328;28;20281;-81
2022/01/16 07:07:23;;;;;;;26.07;17.20;;;0.90;68.30;;;;;;4992306;28;20041;-81
2022/01/16 07:09:48;;;;;;;39.43;22.90;;;0.90;68.20;;;;;;4997303;28;20034;-81
2022/01/16 07:12:14;;;;;;;36.87;22.73;;;0.90;68.20;;;;;;4995413;28;20057;-81
2022/01/16 07:14:40;;;;;;;38.27;22.93;;;1.00;68.30;;;;;;4994503;28;20033;-81
2022/01/16 07:17:06;;;;;;;38.33;24.20;;;1.00;68.30;;;;;;4994020;28;20030;-79
2022/01/16 07:19:32;;;;;;;32.00;17.83;;;1.00;68.20;;;;;;5008894;28;20022;-81
2022/01/16 07:21:58;;;;;;;34.20;20.30;;;1.00;68.30;;;;;;4989539;28;20033;-81
2022/01/16 07:24:24;;;;;;;39.90;22.37;;;1.00;68.30;;;;;;4990310;28;20026;-80
2022/01/16 07:26:49;;;;;;;41.20;23.87;;;1.00;68.20;;;;;;4987591;28;20472;-81
2022/01/16 07:29:15;;;;;;;39.07;22.53;;;1.00;68.20;;;;;;5006966;28;20034;-81
2022/01/16 07:31:41;;;;;;;32.97;19.90;;;1.10;68.30;;;;;;5011658;28;20101;-81
2022/01/16 07:34:07;;;;;;;28.27;17.13;;;1.00;68.10;;;;;;4996514;28;21585;-81
2022/01/16 07:36:34;;;;;;;28.80;18.47;;;1.00;68.00;;;;;;4987945;28;20037;-81
2022/01/16 07:39:00;;;;;;;25.77;15.73;;;1.00;68.10;;;;;;5010318;28;20026;-81
2022/01/16 07:41:26;;;;;;;27.70;15.63;;;1.00;68.10;;;;;;5008770;28;20353;-81
2022/01/16 07:43:51;;;;;;;21.73;13.00;;;1.00;68.10;;;;;;5011009;28;20507;-81
2022/01/16 07:46:18;;;;;;;23.30;13.27;;;1.00;68.10;;;;;;4994932;28;20054;-82
2022/01/16 07:48:43;;;;;;;47.07;27.03;;;1.00;68.10;;;;;;5009329;28;20026;-81
2022/01/16 07:51:09;;;;;;;40.03;24.00;;;1.00;68.00;;;;;;5010120;28;20273;-81
2022/01/16 07:53:36;;;;;;;46.37;25.07;;;0.90;68.10;;;;;;4994397;28;20036;-81
2022/01/16 07:56:03;;;;;;;36.00;21.20;;;0.90;67.90;;;;;;5008676;28;20083;-81
2022/01/16 07:58:29;;;;;;;30.20;19.03;;;0.90;68.20;;;;;;4993570;28;20368;-81
2022/01/16 08:00:56;;;;;;;25.50;16.47;;;0.90;68.30;;;;;;5009159;28;20276;-81
2022/01/16 08:03:22;;;;;;;36.63;21.80;;;0.90;68.10;;;;;;5001664;28;20274;-81
2022/01/16 08:05:48;;;;;;;42.87;24.60;;;1.00;68.30;;;;;;4983286;28;20714;-81
2022/01/16 08:08:14;;;;;;;49.63;25.70;;;1.00;68.20;;;;;;4989404;28;21295;-81
2022/01/16 08:10:40;;;;;;;34.20;20.03;;;1.00;68.10;;;;;;4985603;28;20116;-81
2022/01/16 08:13:06;;;;;;;31.00;18.20;;;1.10;68.20;;;;;;5001007;28;20034;-81
2022/01/16 08:15:32;;;;;;;31.20;18.63;;;1.10;68.10;;;;;;4986898;28;20301;-81
2022/01/16 08:17:57;;;;;;;23.90;15.47;;;1.10;67.90;;;;;;4989827;28;20030;-81
2022/01/16 08:20:23;;;;;;;25.80;16.33;;;1.00;67.90;;;;;;4995399;28;20026;-81
2022/01/16 08:22:49;;;;;;;30.23;17.90;;;1.00;68.10;;;;;;4999372;28;20028;-81
2022/01/16 08:25:15;;;;;;;29.30;17.63;;;1.10;68.10;;;;;;4993608;28;20585;-81
2022/01/16 08:27:41;;;;;;;44.73;23.77;;;1.00;67.90;;;;;;4981733;28;20056;-81
2022/01/16 08:30:08;;;;;;;42.67;23.83;;;1.10;68.10;;;;;;5010077;28;20022;-81
2022/01/16 08:32:34;;;;;;;43.43;22.80;;;1.10;68.80;;;;;;5009293;28;20281;-81
2022/01/16 08:35:00;;;;;;;28.67;17.13;;;1.10;68.10;;;;;;5011045;28;20103;-81
2022/01/16 08:37:26;;;;;;;24.20;15.03;;;1.20;68.10;;;;;;4990186;28;20026;-80
2022/01/16 08:39:52;;;;;;;25.77;15.83;;;1.10;68.10;;;;;;4996600;28;20018;-81
2022/01/16 08:42:18;;;;;;;30.83;18.37;;;1.10;68.10;;;;;;5007768;28;20330;-81
2022/01/16 08:44:44;;;;;;;28.50;18.50;;;1.20;68.30;;;;;;4989090;28;20037;-81
2022/01/16 08:47:10;;;;;;;31.30;18.00;;;1.20;68.20;;;;;;4993397;28;20030;-82
2022/01/16 08:49:36;;;;;;;26.70;17.13;;;1.20;68.10;;;;;;5007230;28;20038;-81
2022/01/16 08:52:03;;;;;;;28.53;17.87;;;1.20;68.10;;;;;;4994692;28;20499;-81
2022/01/16 08:54:28;;;;;;;36.90;19.53;;;1.20;68.10;;;;;;4994821;28;20149;-81
2022/01/16 08:56:54;;;;;;;32.20;18.03;;;1.20;68.00;;;;;;4994875;28;20108;-81
2022/01/16 08:59:20;;;;;;;23.70;15.50;;;1.20;68.30;;;;;;4993985;28;20018;-81
2022/01/16 09:01:46;;;;;;;29.43;17.73;;;1.30;68.50;;;;;;4998200;28;20124;-81
2022/01/16 09:04:12;;;;;;;24.70;17.27;;;1.40;68.60;;;;;;4991799;28;20109;-82
2022/01/16 09:06:37;;;;;;;20.27;14.07;;;1.40;68.60;;;;;;5000398;28;20038;-81
2022/01/16 09:09:03;;;;;;;25.10;15.53;;;1.50;69.10;;;;;;4992362;28;20499;-82
2022/01/16 09:11:29;;;;;;;22.33;14.17;;;1.60;69.30;;;;;;4987759;28;20030;-81
2022/01/16 09:13:55;;;;;;;25.87;18.33;;;1.70;69.40;;;;;;5003391;28;20033;-81
2022/01/16 09:16:21;;;;;;;31.30;18.10;;;1.70;69.20;;;;;;5000643;28;20124;-81
2022/01/16 09:18:48;;;;;;;27.33;18.10;;;1.80;69.50;;;;;;5006645;28;20022;-81
2022/01/16 09:21:18;;;;;;;29.43;19.53;;;1.80;69.40;;;;;;4993089;28;20669;-81
2022/01/16 09:23:46;;;;;;;30.83;19.73;;;1.90;69.40;;;;;;4992404;28;20038;-81
2022/01/16 09:26:12;;;;;;;28.17;18.87;;;2.00;69.50;;;;;;4994287;28;20385;-81
2022/01/16 09:28:37;;;;;;;25.87;17.20;;;2.20;69.80;;;;;;5008270;28;20038;-81
2022/01/16 09:31:04;;;;;;;21.63;16.20;;;2.40;69.70;;;;;;4986836;28;20022;-81
2022/01/16 09:33:30;;;;;;;28.10;17.80;;;2.60;69.50;;;;;;5008455;28;20077;-82
2022/01/16 09:35:55;;;;;;;20.93;13.53;;;2.80;69.30;;;;;;4985261;28;20491;-82
2022/01/16 09:38:22;;;;;;;21.27;13.60;;;3.10;69.10;;;;;;4994128;28;20030;-81
2022/01/16 09:40:49;;;;;;;19.33;13.13;;;3.10;68.80;;;;;;5002314;28;20026;-82
2022/01/16 09:43:16;;;;;;;18.67;11.80;;;3.20;69.00;;;;;;4983131;28;20031;-82
2022/01/16 09:45:42;;;;;;;19.60;11.40;;;3.40;68.90;;;;;;4995193;28;20033;-82
2022/01/16 09:48:08;;;;;;;16.93;11.50;;;3.40;68.80;;;;;;5000715;28;20578;-82
2022/01/16 09:50:34;;;;;;;18.00;10.27;;;3.50;69.00;;;;;;4995978;28;20034;-81
2022/01/16 09:53:00;;;;;;;14.87;10.47;;;3.70;68.70;;;;;;4994175;28;20049;-82
2022/01/16 09:55:26;;;;;;;21.97;10.00;;;3.70;68.50;;;;;;5000845;28;20034;-81
2022/01/16 09:57:56;;;;;;;16.50;9.97;;;3.90;68.40;;;;;;4996758;28;20379;-82
2022/01/16 10:00:24;;;;;;;20.10;10.77;;;4.10;68.20;;;;;;5002917;28;20076;-82
2022/01/16 10:02:51;;;;;;;18.03;10.90;;;4.20;67.90;;;;;;5009966;28;20022;-81
2022/01/16 10:05:25;;;;;;;19.23;11.87;;;4.30;67.30;;;;;;4995868;28;20030;-82
2022/01/16 10:07:54;;;;;;;23.27;12.83;;;4.50;67.40;;;;;;4989440;28;20112;-81
2022/01/16 10:10:23;;;;;;;17.03;10.13;;;4.70;67.10;;;;;;4999460;28;20037;-82
2022/01/16 10:12:52;;;;;;;16.53;10.30;;;4.90;66.90;;;;;;5004110;28;20436;-82
2022/01/16 10:15:24;;;;;;;15.03;9.80;;;5.10;66.40;;;;;;4999516;28;20045;-82
2022/01/16 10:17:52;;;;;;;14.50;8.98;;;5.20;66.10;;;;;;4984311;28;20469;-82
2022/01/16 10:20:19;;;;;;;15.97;9.43;;;5.30;65.70;;;;;;5003092;28;20026;-81
2022/01/16 10:22:47;;;;;;;13.53;9.33;;;5.40;65.70;;;;;;4992063;28;20433;-81
2022/01/16 10:25:15;;;;;;;13.17;9.10;;;5.40;65.50;;;;;;4977746;28;20493;-81
2022/01/16 10:27:45;;;;;;;13.67;8.67;;;5.60;65.30;;;;;;4998381;28;20030;-81
2022/01/16 10:30:15;;;;;;;13.80;9.93;;;5.80;65.20;;;;;;4993497;28;20149;-82
2022/01/16 10:32:44;;;;;;;15.40;11.07;;;6.10;64.70;;;;;;5004014;28;20057;-82
2022/01/16 10:35:14;;;;;;;15.43;11.50;;;6.20;64.30;;;;;;4986019;28;20058;-81
2022/01/16 10:38:09;;;;;;;16.83;10.93;;;6.20;64.10;;;;;;4997012;28;20026;-82
2022/01/16 10:40:38;;;;;;;15.87;10.13;;;6.30;63.70;;;;;;4985481;28;20044;-82
2022/01/16 10:43:06;;;;;;;16.90;11.70;;;6.40;63.90;;;;;;4984357;28;20022;-82
2022/01/16 10:45:33;;;;;;;19.57;12.43;;;6.60;64.00;;;;;;5000102;28;20036;-82
2022/01/16 10:48:02;;;;;;;17.77;11.63;;;6.90;63.50;;;;;;4988665;28;20022;-82
2022/01/16 10:50:30;;;;;;;18.97;13.00;;;7.00;62.80;;;;;;4984026;28;20022;-82
2022/01/16 10:53:03;;;;;;;17.03;12.27;;;7.20;62.90;;;;;;4986148;28;20050;-82
2022/01/16 10:55:48;;;;;;;15.63;10.35;;;7.40;62.40;;;;;;4991650;28;20018;-82
2022/01/16 10:58:19;;;;;;;13.63;10.03;;;7.40;62.30;;;;;;4975763;28;20092;-82
2022/01/16 11:00:54;;;;;;;14.33;9.23;;;7.70;62.20;;;;;;4995833;28;20113;-82
2022/01/16 11:03:21;;;;;;;11.87;8.50;;;7.70;61.50;;;;;;4984028;28;20030;-81
2022/01/16 11:05:49;;;;;;;10.40;7.33;;;7.80;61.70;;;;;;4989717;28;20025;-82
2022/01/16 11:08:18;;;;;;;10.70;7.40;;;8.10;61.90;;;;;;5000262;28;20030;-82
2022/01/16 11:10:46;;;;;;;8.63;6.53;;;8.30;60.60;;;;;;4992146;28;20149;-82
2022/01/16 11:13:20;;;;;;;10.23;6.00;;;8.40;60.20;;;;;;4976450;28;20034;-82
2022/01/16 11:15:52;;;;;;;9.00;6.40;;;8.50;59.40;;;;;;5001022;28;20042;-82
2022/01/16 11:18:20;;;;;;;9.67;5.83;;;8.50;59.50;;;;;;4995431;28;20022;-82
2022/01/16 11:25:59;;;;;;;9.10;6.33;;;8.50;59.20;;;;;;5001295;28;20033;-82
2022/01/16 11:28:25;;;;;;;9.53;6.10;;;8.60;59.00;;;;;;4992629;28;20037;-82
2022/01/16 11:30:58;;;;;;;7.37;5.67;;;8.60;58.50;;;;;;4995136;28;20021;-81
2022/01/16 11:33:25;;;;;;;8.07;5.80;;;8.50;58.20;;;;;;4994975;28;20037;-82
2022/01/16 11:36:04;;;;;;;9.80;7.20;;;8.50;58.30;;;;;;4983476;28;20025;-82
2022/01/16 11:38:50;;;;;;;11.40;6.17;;;8.50;58.20;;;;;;4993714;28;20053;-83
2022/01/16 11:41:33;;;;;;;8.40;5.63;;;8.50;57.90;;;;;;4995464;28;20038;-82
2022/01/16 11:44:09;;;;;;;9.93;6.27;;;8.40;58.30;;;;;;4995419;28;20026;-81
2022/01/16 11:46:40;;;;;;;11.37;6.73;;;8.60;58.30;;;;;;4989584;28;20030;-82
2022/01/16 11:49:08;;;;;;;9.77;6.60;;;8.70;57.90;;;;;;4994593;28;20046;-81
2022/01/16 11:51:37;;;;;;;8.70;6.13;;;8.70;57.60;;;;;;4989251;28;20405;-83
2022/01/16 11:54:10;;;;;;;8.10;5.67;;;8.60;57.60;;;;;;4999196;28;20034;-83
2022/01/16 11:56:41;;;;;;;8.77;6.17;;;8.60;57.60;;;;;;4984114;28;20125;-80
2022/01/16 11:59:16;;;;;;;11.20;5.67;;;8.60;57.30;;;;;;4981093;28;20034;-83
2022/01/16 12:02:02;;;;;;;7.67;5.93;;;8.50;57.50;;;;;;4983203;28;20034;-81
2022/01/16 12:04:28;;;;;;;8.43;5.73;;;8.80;57.30;;;;;;4993826;28;20026;-82
2022/01/16 12:06:58;;;;;;;8.33;5.77;;;8.80;57.10;;;;;;4992003;28;20493;-82
2022/01/16 12:09:36;;;;;;;8.33;5.07;;;8.80;56.70;;;;;;5008268;28;20420;-81
2022/01/16 12:12:11;;;;;;;7.67;5.30;;;8.80;56.50;;;;;;4987654;28;20334;-81
2022/01/16 12:14:52;;;;;;;7.57;5.00;;;8.80;56.50;;;;;;4998017;28;20060;-80
2022/01/16 12:17:35;;;;;;;7.67;4.83;;;8.70;56.50;;;;;;4984762;28;20087;-82
2022/01/16 12:20:13;;;;;;;;;;;8.70;56.30;;;;;;4995452;28;20026;-82
2022/01/16 12:22:56;;;;;;;7.70;4.67;;;8.60;56.50;;;;;;4995911;28;19933;-81
2022/01/16 12:25:25;;;;;;;6.68;4.35;;;8.70;56.80;;;;;;5016111;28;20030;-81
2022/01/16 12:27:53;;;;;;;7.70;4.93;;;8.90;56.40;;;;;;4993390;28;20022;-81
2022/01/16 12:30:35;;;;;;;8.27;4.70;;;9.00;56.20;;;;;;4992877;28;20060;-82
2022/01/16 12:33:15;;;;;;;6.67;4.23;;;9.20;55.70;;;;;;4989559;28;20540;-82
2022/01/16 12:35:41;;;;;;;6.70;4.63;;;9.10;55.70;;;;;;5000253;28;20084;-82
2022/01/16 12:38:18;;;;;;;5.83;4.00;;;9.10;55.80;;;;;;4996000;28;20451;-81
2022/01/16 12:40:47;;;;;;;6.67;4.40;;;9.10;55.80;;;;;;5007919;28;20014;-81
2022/01/16 12:43:28;;;;;;;6.23;4.63;;;9.10;55.70;;;;;;4991319;28;20022;-81
2022/01/16 12:45:54;;;;;;;7.00;4.93;;;9.10;55.80;;;;;;4994211;28;20049;-82
2022/01/16 12:48:20;;;;;;;9.80;4.40;;;9.10;55.70;;;;;;5008757;28;20107;-82
2022/01/16 12:50:47;;;;;;;7.20;5.17;;;9.10;55.40;;;;;;5001188;28;20495;-81
2022/01/16 12:53:13;;;;;;;6.60;4.67;;;9.10;55.50;;;;;;4987128;28;20033;-83
2022/01/16 12:55:39;;;;;;;5.17;3.97;;;9.00;55.30;;;;;;4994685;28;20112;-81
2022/01/16 12:58:19;;;;;;;5.53;3.73;;;8.90;55.60;;;;;;5014452;28;20109;-81
2022/01/16 13:01:17;;;;;;;5.87;4.03;;;8.90;55.50;;;;;;4992786;28;20022;-81
2022/01/16 13:03:44;;;;;;;7.83;4.57;;;8.90;55.40;;;;;;4973274;28;20158;-81
2022/01/16 13:06:20;;;;;;;10.10;4.60;;;8.80;55.30;;;;;;4991375;28;20037;-81
2022/01/16 13:08:58;;;;;;;7.17;4.50;;;8.70;55.30;;;;;;4985009;28;20029;-86
2022/01/16 13:11:27;;;;;;;5.70;3.50;;;8.70;55.40;;;;;;5001491;28;20483;-86
2022/01/16 13:13:54;;;;;;;7.60;4.00;;;8.80;55.20;;;;;;4999941;28;20060;-86
2022/01/16 13:16:35;;;;;;;5.40;3.60;;;8.80;55.10;;;;;;5002436;28;20493;-86
2022/01/16 13:19:08;;;;;;;4.20;3.10;;;8.70;55.00;;;;;;4988730;28;20105;-86
2022/01/16 13:22:23;;;;;;;5.07;3.13;;;8.70;55.40;;;;;;5007274;28;20014;-86
2022/01/16 13:25:03;;;;;;;5.03;3.70;;;8.70;55.30;;;;;;4990655;28;20033;-86
2022/01/16 13:27:34;;;;;;;5.90;3.93;;;8.80;55.30;;;;;;4990889;28;20018;-86
2022/01/16 13:30:04;;;;;;;9.10;4.77;;;8.70;55.00;;;;;;4994876;28;20029;-87
2022/01/16 13:32:35;;;;;;;7.17;5.40;;;8.60;55.20;;;;;;4995923;28;20487;-86
2022/01/16 13:35:05;;;;;;;12.33;8.17;;;8.50;55.10;;;;;;4996002;28;20153;-86